Terminal Aerodrome Forecast
Issued by NWS Cleveland, OH

Home | Current Version | Previous Version | Graphics & Text | Print | Product List | Glossary Off
Versions: 1 2 3 4 5 6 7 8 9 10 11 12 13 14 15 16 17 18 19 20 21 22 23 24 25 26

532
FTUS41 KCLE 291137
TAFYNG
TAF
KYNG 291137Z 2912/3012 01009KT P6SM BKN015
      TEMPO 2913/2915 SCT015
     FM291500 02010KT P6SM SCT025 BKN250
     FM300600 08011KT P6SM OVC120=

USA.gov is the U.S. government's official web portal to all federal, state and local government web resources and services.